Statia Glory — V7UF4 — position and weather

sailwx.info

Track history (hours):
 
Tides and Currents Weather Stations Pressure Air Temp Water Temp Dewpoint Dewpoint Depression Visibility Wind Speed Wind Dir Waves Ship Positions

Statia Glory

Last reported at 2018-May-22 05:13 UTC. Time now 2018-May-22 10:16 UTC.
Position N 17°29' W 063°00'.

Length 28 m; draft 4.5 m.

Type: Tug. MMSI: 538003938.

Date/timePositionNaut miles runAvg speedWind from/ knotsBaromVisibWave heightAir tempDewpointWater temp
2018-May-22 05:13N 17°29' W 063°00'0 0.0
2018-May-22 04:45N 17°29' W 063°00'0 0.0
2018-May-22 04:21N 17°29' W 063°00'0 0.0
2018-May-22 03:59N 17°29' W 063°00'0 0.0
2018-May-21 08:32N 17°29' W 063°00'0 0.0
2018-May-21 06:16N 17°29' W 063°00'0 0.0
2018-May-21 05:59N 17°29' W 063°00'0 0.0
2018-May-20 06:05N 17°29' W 063°00'0 2.4
2018-May-20 06:00N 17°29' W 063°00'1 0.7
2018-May-20 04:55N 17°29' W 062°59'0 0.0
2018-May-20 04:30N 17°29' W 062°59'0 0.0
2018-May-20 03:51N 17°29' W 062°59'1 0.0
2018-May-18 20:29N 17°29' W 063°00'0 0.0
2018-May-18 03:18N 17°29' W 063°00'0 0.3
2018-May-18 02:59N 17°29' W 063°00'13 4.1
2018-May-17 23:54N 17°41' W 063°02'3 5.4
2018-May-17 23:24N 17°44' W 063°01'3 5.3
2018-May-17 22:49N 17°47' W 063°00'2 5.2
2018-May-17 22:28N 17°48' W 063°01'3 5.5
2018-May-17 21:57N 17°51' W 063°02'3 5.7
2018-May-17 21:28N 17°54' W 063°03'3 5.6
2018-May-17 21:00N 17°56' W 063°04'3 5.4
2018-May-17 20:26N 17°59' W 063°05'2 5.1
2018-May-17 19:59N 18°00' W 063°03'0 0.3
2018-May-17 18:03N 18°00' W 063°03'0 0.9
2018-May-17 17:36N 18°01' W 063°03'0 0.5
2018-May-17 17:19N 18°01' W 063°03'0 0.9
2018-May-17 16:51N 18°00' W 063°03'0 0.0
2018-May-17 16:21N 18°00' W 063°03'0 0.0
2018-May-17 13:24N 18°00' W 063°03'0 0.0
2018-May-17 13:00N 18°00' W 063°03'0 0.0
2018-May-16 12:09N 18°01' W 063°03'0 0.5
2018-May-16 11:50N 18°01' W 063°03'0 0.0
2018-May-15 22:19N 18°01' W 063°03'1 0.5
2018-May-15 21:21N 18°01' W 063°03'1 0.1
2018-May-15 16:13N 18°01' W 063°03'0 0.1
2018-May-15 12:00N 18°00' W 063°03'0 0.6
2018-May-15 11:15N 18°01' W 063°03'0 0.0
2018-May-15 10:51N 18°01' W 063°03'0 0.0
2018-May-15 02:46N 18°01' W 063°03'1 0.1
2018-May-14 19:02N 18°00' W 063°03'0 0.5
2018-May-14 18:52N 18°01' W 063°03'0 0.0
2018-May-14 18:29N 18°01' W 063°03'1 0.0
2018-May-14 05:07N 18°01' W 063°03'0 0.0
2018-May-14 04:34N 18°01' W 063°03'0 3.6
2018-May-14 04:28N 18°01' W 063°03'0 0.0
2018-May-13 21:19N 18°01' W 063°03'0 0.9
2018-May-13 20:51N 18°01' W 063°03'0 0.0
2018-May-13 20:21N 18°01' W 063°03'0 0.0
2018-May-13 19:51N 18°01' W 063°03'0 0.0
2018-May-13 18:21N 18°01' W 063°03'0 0.0
2018-May-13 17:51N 18°01' W 063°03'0 0.0
2018-May-13 17:09N 18°01' W 063°03'0 0.1
2018-May-13 16:54N 18°01' W 063°03'0 0.0
2018-May-13 16:11N 18°01' W 063°03'0 0.0
2018-May-13 15:59N 18°01' W 063°03'0 0.0
2018-May-13 15:11N 18°01' W 063°03'0 0.0
2018-May-13 14:59N 18°01' W 063°03'0 0.0
2018-May-13 13:02N 18°01' W 063°03'0 0.0
2018-May-13 12:47N 18°01' W 063°03'0 0.0
2018-May-13 12:29N 18°01' W 063°03'0 0.4
2018-May-13 11:29N 18°01' W 063°03'0 0.0
2018-May-13 07:18N 18°01' W 063°03'0 0.0
2018-May-13 07:00N 18°01' W 063°03'0 0.0
2018-May-13 06:20N 18°01' W 063°03'0 0.0
2018-May-13 05:17N 18°01' W 063°03'0 0.0
2018-May-13 04:48N 18°01' W 063°03'0 0.0
2018-May-13 03:08N 18°01' W 063°03'0 0.0
2018-May-13 01:26N 18°01' W 063°03'0 0.1
2018-May-12 18:48N 18°01' W 063°03'0 0.1
2018-May-12 10:13N 18°01' W 063°03'0 0.0
2018-May-12 07:34N 18°01' W 063°03'  
Track history (hours):
 
Tides and Currents Weather Stations Pressure Air Temp Water Temp Dewpoint Dewpoint Depression Visibility Wind Speed Wind Dir Waves Ship Positions

Statia Glory

Last reported at 2018-May-22 05:13 UTC. Time now 2018-May-22 10:16 UTC.
Position N 17°29' W 063°00'.

Length 28 m; draft 4.5 m.

Type: Tug. MMSI: 538003938.

Date/timePositionNaut miles runAvg speedWind from/ knotsBaromVisibWave heightAir tempDewpointWater temp
2018-May-22 05:13N 17°29' W 063°00'0 0.0
2018-May-22 04:45N 17°29' W 063°00'0 0.0
2018-May-22 04:21N 17°29' W 063°00'0 0.0
2018-May-22 03:59N 17°29' W 063°00'0 0.0
2018-May-21 08:32N 17°29' W 063°00'0 0.0
2018-May-21 06:16N 17°29' W 063°00'0 0.0
2018-May-21 05:59N 17°29' W 063°00'0 0.0
2018-May-20 06:05N 17°29' W 063°00'0 2.4
2018-May-20 06:00N 17°29' W 063°00'1 0.7
2018-May-20 04:55N 17°29' W 062°59'0 0.0
2018-May-20 04:30N 17°29' W 062°59'0 0.0
2018-May-20 03:51N 17°29' W 062°59'1 0.0
2018-May-18 20:29N 17°29' W 063°00'0 0.0
2018-May-18 03:18N 17°29' W 063°00'0 0.3
2018-May-18 02:59N 17°29' W 063°00'13 4.1
2018-May-17 23:54N 17°41' W 063°02'3 5.4
2018-May-17 23:24N 17°44' W 063°01'3 5.3
2018-May-17 22:49N 17°47' W 063°00'2 5.2
2018-May-17 22:28N 17°48' W 063°01'3 5.5
2018-May-17 21:57N 17°51' W 063°02'3 5.7
2018-May-17 21:28N 17°54' W 063°03'3 5.6
2018-May-17 21:00N 17°56' W 063°04'3 5.4
2018-May-17 20:26N 17°59' W 063°05'2 5.1
2018-May-17 19:59N 18°00' W 063°03'0 0.3
2018-May-17 18:03N 18°00' W 063°03'0 0.9
2018-May-17 17:36N 18°01' W 063°03'0 0.5
2018-May-17 17:19N 18°01' W 063°03'0 0.9
2018-May-17 16:51N 18°00' W 063°03'0 0.0
2018-May-17 16:21N 18°00' W 063°03'0 0.0
2018-May-17 13:24N 18°00' W 063°03'0 0.0
2018-May-17 13:00N 18°00' W 063°03'0 0.0
2018-May-16 12:09N 18°01' W 063°03'0 0.5
2018-May-16 11:50N 18°01' W 063°03'0 0.0
2018-May-15 22:19N 18°01' W 063°03'1 0.5
2018-May-15 21:21N 18°01' W 063°03'1 0.1
2018-May-15 16:13N 18°01' W 063°03'0 0.1
2018-May-15 12:00N 18°00' W 063°03'0 0.6
2018-May-15 11:15N 18°01' W 063°03'0 0.0
2018-May-15 10:51N 18°01' W 063°03'0 0.0
2018-May-15 02:46N 18°01' W 063°03'1 0.1
2018-May-14 19:02N 18°00' W 063°03'0 0.5
2018-May-14 18:52N 18°01' W 063°03'0 0.0
2018-May-14 18:29N 18°01' W 063°03'1 0.0
2018-May-14 05:07N 18°01' W 063°03'0 0.0
2018-May-14 04:34N 18°01' W 063°03'0 3.6
2018-May-14 04:28N 18°01' W 063°03'0 0.0
2018-May-13 21:19N 18°01' W 063°03'0 0.9
2018-May-13 20:51N 18°01' W 063°03'0 0.0
2018-May-13 20:21N 18°01' W 063°03'0 0.0
2018-May-13 19:51N 18°01' W 063°03'0 0.0
2018-May-13 18:21N 18°01' W 063°03'0 0.0
2018-May-13 17:51N 18°01' W 063°03'0 0.0
2018-May-13 17:09N 18°01' W 063°03'0 0.1
2018-May-13 16:54N 18°01' W 063°03'0 0.0
2018-May-13 16:11N 18°01' W 063°03'0 0.0
2018-May-13 15:59N 18°01' W 063°03'0 0.0
2018-May-13 15:11N 18°01' W 063°03'0 0.0
2018-May-13 14:59N 18°01' W 063°03'0 0.0
2018-May-13 13:02N 18°01' W 063°03'0 0.0
2018-May-13 12:47N 18°01' W 063°03'0 0.0
2018-May-13 12:29N 18°01' W 063°03'0 0.4
2018-May-13 11:29N 18°01' W 063°03'0 0.0
2018-May-13 07:18N 18°01' W 063°03'0 0.0
2018-May-13 07:00N 18°01' W 063°03'0 0.0
2018-May-13 06:20N 18°01' W 063°03'0 0.0
2018-May-13 05:17N 18°01' W 063°03'0 0.0
2018-May-13 04:48N 18°01' W 063°03'0 0.0
2018-May-13 03:08N 18°01' W 063°03'0 0.0
2018-May-13 01:26N 18°01' W 063°03'0 0.1
2018-May-12 18:48N 18°01' W 063°03'0 0.1
2018-May-12 10:13N 18°01' W 063°03'0 0.0
2018-May-12 07:34N 18°01' W 063°03'  

Dump ship's entire track history